createdAt,value
2018-12-24T00:00:40.607Z,99990.28
2018-12-24T00:03:13.238Z,99983.94
2018-12-24T00:05:45.905Z,99983.94
2018-12-24T00:08:17.978Z,99992.89
2018-12-24T00:10:50.612Z,100001.26
2018-12-24T00:13:23.304Z,99998.00
2018-12-24T00:15:56.058Z,99998.00
2018-12-24T00:18:28.502Z,100002.44
2018-12-24T00:21:00.963Z,99987.63
2018-12-24T00:23:33.726Z,99987.09
2018-12-24T00:26:04.853Z,99997.17
2018-12-24T00:28:37.280Z,100000.42
2018-12-24T00:31:10.058Z,99992.42
2018-12-24T00:33:44.055Z,99990.05
2018-12-24T00:36:17.298Z,99997.88
2018-12-24T00:38:50.063Z,99999.24
2018-12-24T00:41:23.020Z,100000.61
2018-12-24T00:43:57.831Z,99991.06
2018-12-24T00:46:30.055Z,100000.61
2018-12-24T00:49:02.890Z,100003.86
2018-12-24T00:51:35.371Z,99997.57
2018-12-24T00:54:08.064Z,99997.27
2018-12-24T00:56:41.050Z,100009.53
2018-12-24T00:59:14.063Z,100001.01
2018-12-24T01:01:48.904Z,100000.36
2018-12-24T01:04:21.127Z,99991.88
2018-12-24T01:06:54.031Z,100001.11
2018-12-24T01:09:27.009Z,100002.25
2018-12-24T01:11:59.409Z,100014.20
2018-12-24T01:14:32.067Z,100010.13
2018-12-24T01:17:04.991Z,99999.73
2018-12-24T01:19:38.307Z,100010.30
2018-12-24T01:22:11.067Z,100019.32
2018-12-24T01:24:45.875Z,100028.02
2018-12-24T01:27:23.480Z,100022.58
2018-12-24T01:29:56.357Z,100026.35
2018-12-24T01:32:29.055Z,100037.26
2018-12-24T01:35:02.294Z,100029.61
2018-12-24T01:37:35.425Z,100035.24
2018-12-24T01:40:07.994Z,100028.55
2018-12-24T01:42:40.440Z,100027.00
2018-12-24T01:45:13.010Z,100036.55
2018-12-24T01:47:46.046Z,100029.08
2018-12-24T01:50:18.845Z,100039.64
2018-12-24T01:52:51.386Z,100030.84
2018-12-24T01:55:24.061Z,100037.66
2018-12-24T01:57:56.991Z,100048.22
2018-12-24T02:00:29.392Z,100052.65
2018-12-24T02:03:02.304Z,100057.23
2018-12-24T02:05:35.130Z,100048.22
2018-12-24T02:08:08.014Z,100053.14
2018-12-24T02:10:41.315Z,100055.03
2018-12-24T02:13:14.028Z,100053.14
2018-12-24T02:15:46.902Z,100052.30
2018-12-24T02:18:19.274Z,100042.45
2018-12-24T02:20:52.118Z,100048.22
2018-12-24T02:23:25.063Z,100050.63
2018-12-24T02:25:57.898Z,100054.72
2018-12-24T02:28:30.402Z,100062.69
2018-12-24T02:31:03.284Z,100066.28
2018-12-24T02:33:36.384Z,100071.52
2018-12-24T02:36:09.076Z,100069.50
2018-12-24T02:38:42.067Z,100075.48
2018-12-24T02:41:15.025Z,100079.91
2018-12-24T02:43:47.459Z,100091.00
2018-12-24T02:46:20.465Z,100084.89
2018-12-24T02:48:53.035Z,100093.06
2018-12-24T02:51:26.311Z,100094.43
2018-12-24T02:54:39.324Z,100094.09
2018-12-24T02:57:11.630Z,100105.72
2018-12-24T02:59:43.510Z,100100.67
2018-12-24T03:02:15.791Z,100100.67
2018-12-24T03:04:47.638Z,100114.48
2018-12-24T03:07:19.366Z,100116.71
2018-12-24T03:09:51.264Z,100116.71
2018-12-24T03:12:23.065Z,100115.53
2018-12-24T03:14:54.802Z,100122.88
2018-12-24T03:17:26.763Z,100124.23
2018-12-24T03:19:57.494Z,100130.52
2018-12-24T03:22:29.315Z,100130.84
2018-12-24T03:25:00.874Z,100129.47
2018-12-24T03:27:32.767Z,100133.06
2018-12-24T03:30:04.719Z,100140.91
2018-12-24T03:32:35.469Z,100141.43
2018-12-24T03:35:06.632Z,100146.88
2018-12-24T03:37:37.845Z,100155.58
2018-12-24T03:40:09.879Z,100151.50
2018-12-24T03:42:41.833Z,100163.45
2018-12-24T03:45:13.706Z,100164.47
2018-12-24T03:47:44.671Z,100163.94
2018-12-24T03:50:15.647Z,100174.66
2018-12-24T03:52:47.774Z,100171.67
2018-12-24T03:55:18.460Z,100171.67
2018-12-24T03:57:50.313Z,100184.73
2018-12-24T04:00:22.020Z,100185.57
2018-12-24T04:02:53.757Z,100192.07
2018-12-24T04:05:25.745Z,100193.92
2018-12-24T04:07:56.481Z,100206.02
2018-12-24T04:10:28.260Z,100208.09
2018-12-24T04:13:00.010Z,100212.17
2018-12-24T04:15:31.780Z,100222.23
2018-12-24T04:18:03.777Z,100220.34
2018-12-24T04:20:34.594Z,100229.72
2018-12-24T04:23:06.392Z,100245.33
2018-12-24T04:25:42.346Z,100245.33
2018-12-24T04:28:14.585Z,100257.73
2018-12-24T04:30:46.366Z,100261.37
2018-12-24T04:33:18.020Z,100261.37
2018-12-24T04:38:21.302Z,100277.16
2018-12-24T04:40:53.298Z,100293.84
2018-12-24T04:43:32.052Z,100297.09
2018-12-24T04:45:58.804Z,100302.72
2018-12-24T04:48:30.771Z,100322.67
2018-12-24T04:51:01.629Z,100329.98
2018-12-24T04:53:33.802Z,100347.08
2018-12-24T04:56:05.891Z,100347.08
2018-12-24T04:58:37.981Z,100356.27
2018-12-24T05:01:09.788Z,100368.53
2018-12-24T05:03:40.617Z,100379.65
2018-12-24T05:06:12.587Z,100398.59
2018-12-24T05:08:44.415Z,100405.41
2018-12-24T05:11:16.314Z,100405.41
2018-12-24T05:13:48.013Z,100425.50
2018-12-24T05:16:19.803Z,100435.77
2018-12-24T05:18:50.848Z,100450.24
2018-12-24T05:21:22.843Z,100461.00
2018-12-24T05:23:54.770Z,100477.00
2018-12-24T05:26:25.488Z,100483.50
2018-12-24T05:28:57.360Z,100492.72
2018-12-24T05:31:29.650Z,100503.97
2018-12-24T05:34:01.840Z,100519.02
2018-12-24T05:36:33.815Z,100519.02
2018-12-24T05:39:07.413Z,100525.84
2018-12-24T05:41:39.364Z,100541.14
2018-12-24T05:44:11.312Z,100551.72
2018-12-24T05:46:43.308Z,100563.15
2018-12-24T05:49:14.963Z,100578.98
2018-12-24T05:51:46.763Z,100580.52
2018-12-24T05:54:17.510Z,100593.30
2018-12-24T05:56:49.304Z,100604.20
2018-12-24T05:59:21.302Z,100613.42
2018-12-24T06:01:53.308Z,100625.33
2018-12-24T06:04:24.991Z,100638.64
2018-12-24T06:09:27.410Z,100652.95
2018-12-24T06:11:59.127Z,100660.28
2018-12-24T06:14:31.514Z,100676.64
2018-12-24T06:17:03.784Z,100680.57
2018-12-24T06:19:35.407Z,100693.00
2018-12-24T06:22:07.353Z,100707.14
2018-12-24T06:24:39.378Z,100714.64
2018-12-24T06:27:11.330Z,100726.27
2018-12-24T06:29:44.377Z,100737.65
2018-12-24T06:32:16.308Z,100744.30
2018-12-24T06:34:47.897Z,100759.80
2018-12-24T06:37:19.842Z,100770.91
2018-12-24T06:39:51.596Z,100778.39
2018-12-24T06:42:23.761Z,100778.73
2018-12-24T06:44:54.645Z,100778.73
2018-12-24T06:47:25.946Z,100812.42
2018-12-24T06:49:57.436Z,100816.19
2018-12-24T06:52:29.346Z,100827.08
2018-12-24T06:55:01.411Z,100831.00
2018-12-24T06:57:33.425Z,100839.70
2018-12-24T07:00:05.318Z,100848.03
2018-12-24T07:02:37.383Z,100861.14
2018-12-24T07:05:09.057Z,100865.73
2018-12-24T07:07:40.851Z,100883.45
2018-12-24T07:10:12.769Z,100887.53
2018-12-24T07:12:43.605Z,100892.98
2018-12-24T07:15:15.361Z,100900.31
2018-12-24T07:17:47.639Z,100900.31
2018-12-24T07:20:19.839Z,100920.23
2018-12-24T07:22:51.761Z,100920.23
2018-12-24T07:25:23.387Z,100929.77
2018-12-24T07:27:55.334Z,100933.52
2018-12-24T07:30:27.317Z,100948.50
2018-12-24T07:33:01.354Z,100956.84
2018-12-24T07:35:33.503Z,100961.77
2018-12-24T07:38:05.327Z,100964.16
2018-12-24T07:40:37.008Z,100971.49
2018-12-24T07:43:09.006Z,100977.94
2018-12-24T07:45:40.721Z,100983.06
2018-12-24T07:48:12.431Z,100991.23
2018-12-24T07:50:44.743Z,101001.09
2018-12-24T07:53:15.661Z,101004.34
2018-12-24T07:55:47.321Z,101007.23
2018-12-24T07:58:19.318Z,101007.23
2018-12-24T08:00:51.030Z,101021.72
2018-12-24T08:03:23.320Z,101031.58
2018-12-24T08:05:55.320Z,101046.89
2018-12-24T08:08:27.373Z,101049.62
2018-12-24T08:10:59.497Z,101067.33
2018-12-24T08:13:32.102Z,101072.29
2018-12-24T08:16:04.794Z,101074.14
2018-12-24T08:18:35.743Z,101076.53
2018-12-24T08:21:06.649Z,101081.98
2018-12-24T08:23:39.847Z,101084.52
2018-12-24T08:26:11.840Z,101084.52
2018-12-24T08:28:43.818Z,101101.56
2018-12-24T08:31:15.826Z,101108.05
2018-12-24T08:33:47.761Z,101111.44
2018-12-24T08:36:19.808Z,101111.08
2018-12-24T08:38:52.311Z,101119.77
2018-12-24T08:41:23.899Z,101124.04
2018-12-24T08:43:55.799Z,101129.48
2018-12-24T08:46:27.815Z,101136.45
2018-12-24T08:48:59.820Z,101146.50
2018-12-24T08:51:31.717Z,101152.95
2018-12-24T08:54:02.640Z,101169.80
2018-12-24T08:56:35.802Z,101172.34
2018-12-24T08:59:07.778Z,101172.34
2018-12-24T09:01:39.421Z,101188.36
2018-12-24T09:04:11.314Z,101199.25
2018-12-24T09:06:43.302Z,101203.49
2018-12-24T09:09:15.438Z,101209.78
2018-12-24T09:11:47.308Z,101217.11
2018-12-24T09:14:19.129Z,101222.73
2018-12-24T09:16:51.426Z,101223.92
2018-12-24T09:19:23.310Z,101227.86
2018-12-24T09:21:55.300Z,101231.94
2018-12-24T09:24:27.308Z,101233.81
2018-12-24T09:26:59.025Z,101244.20
2018-12-24T09:29:31.642Z,101236.55
2018-12-24T09:32:03.608Z,101242.84
2018-12-24T09:34:36.793Z,101241.26
2018-12-24T09:37:07.573Z,101241.26
2018-12-24T09:39:39.395Z,101250.60
2018-12-24T09:42:11.312Z,101250.60
2018-12-24T09:44:43.312Z,101267.68
2018-12-24T09:47:14.839Z,101273.13
2018-12-24T09:49:46.402Z,101274.97
2018-12-24T09:52:18.484Z,101282.66
2018-12-24T09:54:50.344Z,101291.17
2018-12-24T09:57:22.756Z,101283.14
2018-12-24T09:59:53.535Z,101287.59
2018-12-24T10:02:36.770Z,101291.50
2018-12-24T10:05:09.004Z,101293.73
2018-12-24T10:07:42.304Z,101295.77
2018-12-24T10:10:18.830Z,101300.52
2018-12-24T10:12:50.382Z,101305.81
2018-12-24T10:15:22.310Z,101300.19
2018-12-24T10:17:54.092Z,101296.09
2018-12-24T10:20:26.257Z,101296.95
2018-12-24T10:22:58.071Z,101310.94
2018-12-24T10:25:31.005Z,101306.48
2018-12-24T10:28:02.803Z,101318.07
2018-12-24T10:30:34.750Z,101319.25
2018-12-24T10:33:05.587Z,101319.06
2018-12-24T10:35:39.626Z,101331.17
2018-12-24T10:38:11.305Z,101331.17
2018-12-24T10:41:09.890Z,101328.45
2018-12-24T10:43:42.763Z,101340.53
2018-12-24T10:46:13.497Z,101336.62
2018-12-24T10:48:46.541Z,101336.11
2018-12-24T10:51:18.931Z,101348.36
2018-12-24T10:53:50.819Z,101337.33
2018-12-24T10:56:22.746Z,101336.80
2018-12-24T10:58:53.599Z,101339.53
2018-12-24T11:01:24.899Z,101333.72
2018-12-24T11:03:56.707Z,101343.62
2018-12-24T11:06:27.482Z,101340.89
2018-12-24T11:08:59.348Z,101334.59
2018-12-24T11:11:33.713Z,101342.59
2018-12-24T11:14:05.972Z,101341.41
2018-12-24T11:16:37.747Z,101353.30
2018-12-24T11:19:09.719Z,101348.70
2018-12-24T11:21:40.644Z,101359.11
2018-12-24T11:24:12.628Z,101379.03
2018-12-24T11:26:44.417Z,101374.05
2018-12-24T11:29:16.314Z,101374.05
2018-12-24T11:31:48.136Z,101388.20
2018-12-24T11:34:19.816Z,101398.09
2018-12-24T11:36:51.793Z,101402.00
2018-12-24T11:39:23.814Z,101398.11
2018-12-24T11:41:55.835Z,101399.84
2018-12-24T11:44:27.997Z,101405.98
2018-12-24T11:46:59.734Z,101408.20
2018-12-24T11:49:32.681Z,101411.77
2018-12-24T11:52:07.302Z,101419.61
2018-12-24T11:54:39.303Z,101417.55
2018-12-24T11:57:11.050Z,101421.30
2018-12-24T11:59:43.056Z,101420.97
2018-12-24T12:02:14.774Z,101423.70
2018-12-24T12:04:46.458Z,101426.05
2018-12-24T12:07:18.505Z,101440.89
2018-12-24T12:09:50.797Z,101440.89
2018-12-24T12:12:22.801Z,101443.09
2018-12-24T12:14:54.754Z,101451.78
2018-12-24T12:17:25.624Z,101458.74
2018-12-24T12:19:57.430Z,101452.19
2018-12-24T12:22:29.494Z,101452.19
2018-12-24T12:25:01.792Z,101465.88
2018-12-24T12:27:33.642Z,101479.16
2018-12-24T12:30:06.293Z,101484.61
2018-12-24T12:32:38.303Z,101489.17
2018-12-24T12:35:10.260Z,101499.59
2018-12-24T12:37:42.304Z,101502.84
2018-12-24T12:40:13.938Z,101504.92
2018-12-24T12:42:46.556Z,101509.89
2018-12-24T12:45:18.306Z,101514.66
2018-12-24T12:47:50.304Z,101511.61
2018-12-24T12:50:22.080Z,101520.34
2018-12-24T12:52:54.293Z,101526.17
2018-12-24T12:55:26.255Z,101526.17
2018-12-24T12:57:57.987Z,101539.66
2018-12-24T13:00:29.764Z,101533.80
2018-12-24T13:03:00.919Z,101553.58
2018-12-24T13:05:32.746Z,101551.92
2018-12-24T13:10:45.711Z,101570.59
2018-12-24T13:13:17.793Z,101566.64
2018-12-24T13:15:50.291Z,101578.72
2018-12-24T13:18:21.977Z,101573.07
2018-12-24T13:20:53.579Z,101586.55
2018-12-24T13:23:25.766Z,101597.80
2018-12-24T13:25:58.265Z,101597.80
2018-12-24T13:28:30.639Z,101587.41
2018-12-24T13:31:02.687Z,101596.27
2018-12-24T13:33:33.499Z,101596.27
2018-12-24T13:36:05.306Z,101609.76
2018-12-24T13:38:37.586Z,101615.55
2018-12-24T13:41:09.411Z,101627.78
2018-12-24T13:43:41.365Z,101627.78
2018-12-24T13:46:15.734Z,101629.46
2018-12-24T13:48:47.339Z,101643.23
2018-12-24T13:51:19.312Z,101655.28
2018-12-24T13:53:50.789Z,101654.09
2018-12-24T13:56:22.891Z,101664.63
2018-12-24T13:58:54.844Z,101660.54
2018-12-24T14:01:26.707Z,101668.20
2018-12-24T14:03:57.612Z,101673.31
2018-12-24T14:06:30.005Z,101685.52
2018-12-24T14:09:01.826Z,101685.52
2018-12-24T14:11:33.736Z,101695.92
2018-12-24T14:14:04.641Z,101701.37
2018-12-24T14:16:36.384Z,101696.42
2018-12-24T14:19:08.284Z,101696.42
2018-12-24T14:21:40.313Z,101719.88
2018-12-24T14:24:12.770Z,101715.78
2018-12-24T14:26:43.610Z,101716.44
2018-12-24T14:29:14.847Z,101717.12
2018-12-24T14:31:46.527Z,101728.66
2018-12-24T14:34:19.377Z,101731.02
2018-12-24T14:36:51.302Z,101733.39
2018-12-24T14:39:23.368Z,101727.61
2018-12-24T14:41:55.024Z,101729.31
2018-12-24T14:44:26.908Z,101732.34
2018-12-24T14:46:58.828Z,101733.53
2018-12-24T14:49:30.423Z,101737.24
2018-12-24T14:52:02.443Z,101735.51
2018-12-24T14:54:34.266Z,101743.17
2018-12-24T14:57:10.418Z,101748.27
2018-12-24T14:59:42.271Z,101750.59
2018-12-24T15:02:14.354Z,101750.41
2018-12-24T15:04:46.307Z,101758.02
2018-12-24T15:07:18.520Z,101763.15
2018-12-24T15:09:50.819Z,101762.77
2018-12-24T15:12:22.373Z,101765.37
2018-12-24T15:14:54.058Z,101772.30
2018-12-24T15:17:25.814Z,101767.47
2018-12-24T15:19:57.586Z,101762.50
2018-12-24T15:22:28.510Z,101755.44
2018-12-24T15:25:00.453Z,101755.44
2018-12-24T15:27:32.410Z,101775.17
2018-12-24T15:30:04.267Z,101775.67
2018-12-24T15:32:36.311Z,101772.41
2018-12-24T15:35:08.311Z,101766.44
2018-12-24T15:37:40.307Z,101778.29
2018-12-24T15:40:12.307Z,101775.77
2018-12-24T15:42:44.355Z,101783.13
2018-12-24T15:45:16.307Z,101788.61
2018-12-24T15:47:49.266Z,101794.80
2018-12-24T15:50:21.362Z,101802.30
2018-12-24T15:52:53.393Z,101809.53
2018-12-24T15:55:25.311Z,101819.50
2018-12-24T15:57:57.063Z,101826.55
2018-12-24T16:00:28.803Z,101825.03
2018-12-24T16:03:00.836Z,101832.56
2018-12-24T16:05:32.758Z,101826.43
2018-12-24T16:08:03.589Z,101829.06
2018-12-24T16:10:34.499Z,101831.72
2018-12-24T16:13:06.714Z,101828.43
2018-12-24T16:15:37.641Z,101839.66
2018-12-24T16:18:08.499Z,101838.61
2018-12-24T16:20:40.354Z,101838.61
2018-12-24T16:23:12.063Z,101827.49
2018-12-24T16:25:43.777Z,101835.30
2018-12-24T16:28:17.304Z,101836.71
2018-12-24T16:30:49.455Z,101840.59
2018-12-24T16:33:21.863Z,101833.66
2018-12-24T16:35:53.763Z,101839.46
2018-12-24T16:38:24.550Z,101843.16
2018-12-24T16:40:56.871Z,101832.64
2018-12-24T16:43:28.776Z,101832.64
2018-12-24T16:46:00.139Z,101835.42
2018-12-24T16:48:31.844Z,101827.77
2018-12-24T16:51:03.760Z,101825.00
2018-12-24T16:53:40.509Z,101817.45
2018-12-24T16:56:08.827Z,101822.26
2018-12-24T16:58:40.784Z,101815.22
2018-12-24T17:01:12.796Z,101812.98
2018-12-24T17:03:44.804Z,101806.18
2018-12-24T17:06:16.741Z,101819.73
2018-12-24T17:08:48.064Z,101834.28
2018-12-24T17:11:19.790Z,101833.05
2018-12-24T17:13:51.377Z,101836.91
2018-12-24T17:16:23.067Z,101845.44
2018-12-24T17:18:54.812Z,101855.52
2018-12-24T17:21:26.399Z,101860.81
2018-12-24T17:23:58.307Z,101864.94
2018-12-24T17:26:30.626Z,101866.61
2018-12-24T17:29:01.259Z,101861.59
2018-12-24T17:31:32.910Z,101865.52
2018-12-24T17:34:04.808Z,101861.69
2018-12-24T17:36:36.787Z,101852.82
2018-12-24T17:39:11.378Z,101850.87
2018-12-24T17:41:43.307Z,101852.66
2018-12-24T17:44:15.313Z,101844.97
2018-12-24T17:46:47.308Z,101850.22
2018-12-24T17:49:19.058Z,101860.81
2018-12-24T17:51:50.773Z,101857.84
2018-12-24T17:54:21.461Z,101866.53
2018-12-24T17:56:53.302Z,101864.78
2018-12-24T17:59:25.012Z,101865.37
2018-12-24T18:01:57.306Z,101862.82
2018-12-24T18:04:29.609Z,101868.44
2018-12-24T18:07:01.794Z,101852.34
2018-12-24T18:09:33.572Z,101852.34
2018-12-24T18:12:05.486Z,101835.09
2018-12-24T18:14:37.438Z,101835.09
2018-12-24T18:17:09.439Z,101827.59
2018-12-24T18:19:41.452Z,101834.41
2018-12-24T18:22:13.262Z,101824.83
2018-12-24T18:24:45.021Z,101826.52
2018-12-24T18:27:16.795Z,101833.33
2018-12-24T18:29:48.746Z,101842.37
2018-12-24T18:32:19.714Z,101848.13
2018-12-24T18:34:50.488Z,101853.73
2018-12-24T18:37:22.338Z,101848.56
2018-12-24T18:39:54.407Z,101850.45
2018-12-24T18:42:26.818Z,101882.22
2018-12-24T18:44:58.412Z,101882.22
2018-12-24T18:47:33.285Z,101880.73
2018-12-24T18:50:03.830Z,101882.20
2018-12-24T18:52:35.816Z,101878.16
2018-12-24T18:55:07.791Z,101881.36
2018-12-24T18:57:39.978Z,101872.47
2018-12-24T19:00:12.782Z,101869.08
2018-12-24T19:02:44.523Z,101871.40
2018-12-24T19:05:16.567Z,101865.45
2018-12-24T19:07:48.309Z,101857.30
2018-12-24T19:10:20.031Z,101857.30
2018-12-24T19:12:52.011Z,101852.41
2018-12-24T19:15:23.815Z,101856.03
2018-12-24T19:17:55.407Z,101861.81
2018-12-24T19:20:27.776Z,101861.89
2018-12-24T19:22:59.473Z,101862.22
2018-12-24T19:25:31.270Z,101861.65
2018-12-24T19:28:03.311Z,101854.36
2018-12-24T19:30:35.316Z,101852.97
2018-12-24T19:33:07.298Z,101852.20
2018-12-24T19:35:39.730Z,101854.34
2018-12-24T19:38:10.466Z,101862.56
2018-12-24T19:40:42.299Z,101863.33
2018-12-24T19:43:13.995Z,101870.00
2018-12-24T19:45:45.746Z,101859.73
2018-12-24T19:48:17.864Z,101860.20
2018-12-24T19:50:49.813Z,101856.34
2018-12-24T19:53:21.631Z,101854.72
2018-12-24T19:55:54.996Z,101846.56
2018-12-24T19:58:27.263Z,101846.56
2018-12-24T20:00:59.342Z,101852.41
2018-12-24T20:03:31.325Z,101861.50
2018-12-24T20:06:03.382Z,101865.94
2018-12-24T20:08:35.435Z,101871.03
2018-12-24T20:11:07.350Z,101871.89
2018-12-24T20:13:39.457Z,101883.00
2018-12-24T20:16:11.322Z,101889.81
2018-12-24T20:18:43.318Z,101887.03
2018-12-24T20:21:15.398Z,101894.48
2018-12-24T20:23:47.315Z,101894.42
2018-12-24T20:26:19.301Z,101900.01
2018-12-24T20:28:51.454Z,101901.16
2018-12-24T20:31:23.286Z,101892.17
2018-12-24T20:33:55.064Z,101889.02
2018-12-24T20:36:26.796Z,101893.44
2018-12-24T20:38:58.774Z,101887.01
2018-12-24T20:41:30.407Z,101885.95
2018-12-24T20:44:02.689Z,101885.02
2018-12-24T20:46:33.695Z,101886.69
2018-12-24T20:49:04.583Z,101893.14
2018-12-24T20:51:36.386Z,101896.08
2018-12-24T20:54:08.311Z,101896.08
2018-12-24T20:56:40.389Z,101898.41
2018-12-24T20:59:12.988Z,101905.51
2018-12-24T21:01:44.784Z,101919.42
2018-12-24T21:04:16.435Z,101923.30
2018-12-24T21:06:48.310Z,101917.58
2018-12-24T21:09:19.989Z,101923.98
2018-12-24T21:11:51.884Z,101924.28
2018-12-24T21:14:23.880Z,101923.89
2018-12-24T21:16:55.935Z,101919.91
2018-12-24T21:19:28.796Z,101918.99
2018-12-24T21:22:00.656Z,101919.16
2018-12-24T21:24:31.478Z,101919.61
2018-12-24T21:27:03.398Z,101922.14
2018-12-24T21:29:35.297Z,101925.01
2018-12-24T21:32:07.602Z,101921.56
2018-12-24T21:34:39.433Z,101922.52
2018-12-24T21:37:11.306Z,101922.52
2018-12-24T21:39:42.855Z,101905.11
2018-12-24T21:42:14.753Z,101904.42
2018-12-24T21:44:46.807Z,101909.16
2018-12-24T21:47:19.659Z,101904.70
2018-12-24T21:49:50.902Z,101902.99
2018-12-24T21:52:31.122Z,101901.29
2018-12-24T21:57:46.309Z,101900.67
2018-12-24T22:00:18.267Z,101902.28
2018-12-24T22:02:50.296Z,101902.45
2018-12-24T22:05:23.553Z,101897.98
2018-12-24T22:07:55.287Z,101904.97
2018-12-24T22:10:27.831Z,101912.27
2018-12-24T22:12:59.726Z,101904.60
2018-12-24T22:15:30.464Z,101901.02
2018-12-24T22:18:02.321Z,101901.02
2018-12-24T22:20:34.057Z,101891.27
2018-12-24T22:23:05.797Z,101894.13
2018-12-24T22:25:37.774Z,101897.75
2018-12-24T22:28:08.499Z,101892.44
2018-12-24T22:30:40.307Z,101896.66
2018-12-24T22:33:12.301Z,101888.48
2018-12-24T22:35:44.261Z,101881.46
2018-12-24T22:38:16.297Z,101878.39
2018-12-24T22:40:48.312Z,101881.63
2018-12-24T22:43:20.299Z,101874.44
2018-12-24T22:45:52.936Z,101877.84
2018-12-24T22:48:24.992Z,101874.06
2018-12-24T22:50:56.714Z,101863.30
2018-12-24T22:53:27.893Z,101867.39
2018-12-24T22:55:59.780Z,101874.00
2018-12-24T22:58:30.667Z,101871.41
2018-12-24T23:01:02.253Z,101866.98
2018-12-24T23:03:35.303Z,101867.11
2018-12-24T23:06:07.409Z,101858.25
2018-12-24T23:08:39.299Z,101861.97
2018-12-24T23:11:10.850Z,101866.23
2018-12-24T23:13:43.754Z,101860.37
2018-12-24T23:16:14.628Z,101873.14
2018-12-24T23:18:49.594Z,101871.16
2018-12-24T23:21:20.290Z,101871.16
2018-12-24T23:23:52.293Z,101873.58
2018-12-24T23:26:24.005Z,101879.03
2018-12-24T23:28:56.287Z,101876.31
2018-12-24T23:31:28.278Z,101871.50
2018-12-24T23:35:18.829Z,101867.63
2018-12-24T23:37:50.754Z,101874.02
2018-12-24T23:40:23.308Z,101877.97
2018-12-24T23:42:55.328Z,101871.16
2018-12-24T23:45:27.746Z,101868.44
2018-12-24T23:47:59.611Z,101863.13
2018-12-24T23:50:31.427Z,101864.99
2018-12-24T23:53:03.343Z,101865.37
2018-12-24T23:55:35.397Z,101862.78
2018-12-24T23:58:07.294Z,101874.70
